createdAt,value
2022-10-19T00:00:19.889Z,63.00
2022-10-19T00:02:47.691Z,62.90
2022-10-19T00:05:15.440Z,63.20
2022-10-19T00:07:46.241Z,63.20
2022-10-19T00:10:14.158Z,63.20
2022-10-19T00:12:49.458Z,63.30
2022-10-19T00:15:17.427Z,63.40
2022-10-19T00:17:45.292Z,63.30
2022-10-19T00:20:13.142Z,63.30
2022-10-19T00:22:40.916Z,63.80
2022-10-19T00:25:09.249Z,63.10
2022-10-19T00:27:37.901Z,63.00
2022-10-19T00:30:12.594Z,63.00
2022-10-19T00:32:40.381Z,63.20
2022-10-19T00:35:08.739Z,63.20
2022-10-19T00:37:36.572Z,63.30
2022-10-19T00:40:04.583Z,63.30
2022-10-19T00:42:32.829Z,63.30
2022-10-19T00:45:02.419Z,63.30
2022-10-19T00:47:31.990Z,63.00
2022-10-19T00:50:08.557Z,63.30
2022-10-19T00:52:36.692Z,63.30
2022-10-19T00:55:04.919Z,63.10
2022-10-19T00:57:33.098Z,63.10
2022-10-19T01:00:01.555Z,63.40
2022-10-19T01:02:29.330Z,63.50
2022-10-19T01:05:02.367Z,63.50
2022-10-19T01:07:30.218Z,63.50
2022-10-19T01:09:58.238Z,63.60
2022-10-19T01:12:36.497Z,63.70
2022-10-19T01:15:11.543Z,63.80
2022-10-19T01:17:47.601Z,63.70
2022-10-19T01:20:36.618Z,63.50
2022-10-19T01:23:14.195Z,63.40
2022-10-19T01:25:49.275Z,63.40
2022-10-19T01:28:29.246Z,63.50
2022-10-19T01:31:00.282Z,63.50
2022-10-19T01:33:34.169Z,63.50
2022-10-19T01:36:06.110Z,63.40
2022-10-19T01:38:37.195Z,63.30
2022-10-19T01:41:11.392Z,63.20
2022-10-19T01:43:41.772Z,63.10
2022-10-19T01:46:13.832Z,63.10
2022-10-19T01:48:45.884Z,64.00
2022-10-19T01:51:16.033Z,63.60
2022-10-19T01:53:47.159Z,63.50
2022-10-19T01:56:15.591Z,63.50
2022-10-19T01:58:45.371Z,63.70
2022-10-19T02:01:19.248Z,63.90
2022-10-19T02:03:47.607Z,64.10
2022-10-19T02:06:15.819Z,64.50
2022-10-19T02:08:50.615Z,64.80
2022-10-19T02:11:18.926Z,64.80
2022-10-19T02:13:48.271Z,64.30
2022-10-19T02:16:21.390Z,64.30
2022-10-19T02:18:55.495Z,64.40
2022-10-19T02:21:23.331Z,64.40
2022-10-19T02:23:54.265Z,64.50
2022-10-19T02:26:22.980Z,64.30
2022-10-19T02:28:50.933Z,64.00
2022-10-19T02:31:28.589Z,63.80
2022-10-19T02:34:01.399Z,63.80
2022-10-19T02:36:29.233Z,63.80
2022-10-19T02:38:57.174Z,63.80
2022-10-19T02:41:27.080Z,63.80
2022-10-19T02:43:57.873Z,63.90
2022-10-19T02:46:29.575Z,64.00
2022-10-19T02:49:02.085Z,64.10
2022-10-19T02:51:33.431Z,64.00
2022-10-19T02:54:04.259Z,64.50
2022-10-19T02:56:33.347Z,64.50
2022-10-19T02:59:01.615Z,64.50
2022-10-19T03:01:32.573Z,64.40
2022-10-19T03:04:00.435Z,64.20
2022-10-19T03:06:28.934Z,64.20
2022-10-19T03:08:56.792Z,64.10
2022-10-19T03:11:24.650Z,64.00
2022-10-19T03:13:52.552Z,64.00
2022-10-19T03:16:20.314Z,64.00
2022-10-19T03:18:54.864Z,63.70
2022-10-19T03:21:22.615Z,63.60
2022-10-19T03:23:50.422Z,63.50
2022-10-19T03:26:18.425Z,63.50
2022-10-19T03:28:46.284Z,63.70
2022-10-19T03:31:14.129Z,63.90
2022-10-19T03:33:42.185Z,64.30
2022-10-19T03:36:20.386Z,64.50
2022-10-19T03:38:48.565Z,64.60
2022-10-19T03:41:16.385Z,64.60
2022-10-19T03:43:44.273Z,64.70
2022-10-19T03:46:12.014Z,64.50
2022-10-19T03:48:39.903Z,64.40
2022-10-19T03:51:09.067Z,64.40
2022-10-19T03:53:38.572Z,64.60
2022-10-19T03:56:19.767Z,64.50
2022-10-19T03:58:48.517Z,64.30
2022-10-19T04:01:17.676Z,64.10
2022-10-19T04:03:45.763Z,64.10
2022-10-19T04:06:21.170Z,64.10
2022-10-19T04:08:53.724Z,64.20
2022-10-19T04:11:22.656Z,64.20
2022-10-19T04:13:51.263Z,64.20
2022-10-19T04:16:19.579Z,64.20
2022-10-19T04:18:48.886Z,64.10
2022-10-19T04:21:23.877Z,63.90
2022-10-19T04:23:53.402Z,63.80
2022-10-19T04:26:21.523Z,63.50
2022-10-19T04:28:49.644Z,63.60
2022-10-19T04:31:17.596Z,63.40
2022-10-19T04:36:16.602Z,63.30
2022-10-19T04:38:44.430Z,63.50
2022-10-19T04:41:16.846Z,63.70
2022-10-19T04:43:58.408Z,63.60
2022-10-19T04:46:26.490Z,63.50
2022-10-19T04:48:56.445Z,63.50
2022-10-19T04:51:24.552Z,63.90
2022-10-19T04:53:57.016Z,63.90
2022-10-19T04:56:29.274Z,63.90
2022-10-19T04:58:57.974Z,63.70
2022-10-19T05:01:30.843Z,63.80
2022-10-19T05:03:59.978Z,63.60
2022-10-19T05:06:31.345Z,63.50
2022-10-19T05:08:59.337Z,63.50
2022-10-19T05:11:29.953Z,64.10
2022-10-19T05:13:58.240Z,63.50
2022-10-19T05:16:26.037Z,63.50
2022-10-19T05:18:56.088Z,63.40
2022-10-19T05:21:23.885Z,63.40
2022-10-19T05:23:52.474Z,63.30
2022-10-19T05:26:23.779Z,63.30
2022-10-19T05:28:58.425Z,63.30
2022-10-19T05:31:29.978Z,63.60
2022-10-19T05:33:58.195Z,64.10
2022-10-19T05:36:26.884Z,64.10
2022-10-19T05:38:55.462Z,64.00
2022-10-19T05:41:25.334Z,63.80
2022-10-19T05:43:55.137Z,64.00
2022-10-19T05:46:23.731Z,64.00
2022-10-19T05:48:51.554Z,63.90
2022-10-19T05:51:20.342Z,63.90
2022-10-19T05:53:50.287Z,64.00
2022-10-19T05:56:18.933Z,63.90
2022-10-19T05:58:46.702Z,63.80
2022-10-19T06:01:18.977Z,64.00
2022-10-19T06:03:57.059Z,64.00
2022-10-19T06:06:25.573Z,64.00
2022-10-19T06:08:53.807Z,64.00
2022-10-19T06:11:22.853Z,64.10
2022-10-19T06:13:51.436Z,64.60
2022-10-19T06:16:20.936Z,64.60
2022-10-19T06:18:48.826Z,64.50
2022-10-19T06:21:17.639Z,64.50
2022-10-19T06:23:45.535Z,64.50
2022-10-19T06:26:14.377Z,64.40
2022-10-19T06:28:44.890Z,64.30
2022-10-19T06:31:13.609Z,64.30
2022-10-19T06:33:44.313Z,64.20
2022-10-19T06:36:15.472Z,64.10
2022-10-19T06:38:43.706Z,64.40
2022-10-19T06:41:11.673Z,64.50
2022-10-19T06:43:43.014Z,64.50
2022-10-19T06:46:12.056Z,64.20
2022-10-19T06:48:44.419Z,64.30
2022-10-19T06:51:13.765Z,64.40
2022-10-19T06:53:43.927Z,64.10
2022-10-19T06:56:11.959Z,64.20
2022-10-19T06:58:40.075Z,64.30
2022-10-19T07:01:08.938Z,64.30
2022-10-19T07:03:37.553Z,64.40
2022-10-19T07:06:06.300Z,64.40
2022-10-19T07:08:36.970Z,64.50
2022-10-19T07:11:07.912Z,64.40
2022-10-19T07:13:36.200Z,64.20
2022-10-19T07:16:06.727Z,64.10
2022-10-19T07:18:35.564Z,64.10
2022-10-19T07:21:05.109Z,64.30
2022-10-19T07:23:35.823Z,64.40
2022-10-19T07:26:09.626Z,64.20
2022-10-19T07:28:37.668Z,64.10
2022-10-19T07:31:06.436Z,64.20
2022-10-19T07:33:34.732Z,64.20
2022-10-19T07:36:03.393Z,64.00
2022-10-19T07:38:32.530Z,64.00
2022-10-19T07:41:04.822Z,64.00
2022-10-19T07:43:34.706Z,64.20
2022-10-19T07:46:03.342Z,64.70
2022-10-19T07:48:31.335Z,64.20
2022-10-19T07:50:59.452Z,64.30
2022-10-19T07:53:27.506Z,64.40
2022-10-19T07:55:55.478Z,64.30
2022-10-19T07:58:23.723Z,64.20
2022-10-19T08:01:05.376Z,64.20
2022-10-19T08:06:22.478Z,64.00
2022-10-19T08:08:50.563Z,64.10
2022-10-19T08:11:19.383Z,64.10
2022-10-19T08:13:47.457Z,64.00
2022-10-19T08:16:24.355Z,64.00
2022-10-19T08:18:54.078Z,64.00
2022-10-19T08:21:21.917Z,64.00
2022-10-19T08:23:49.877Z,64.00
2022-10-19T08:26:17.814Z,63.80
2022-10-19T08:28:45.663Z,64.30
2022-10-19T08:31:14.896Z,63.60
2022-10-19T08:33:44.518Z,63.60
2022-10-19T08:36:13.138Z,63.70
2022-10-19T08:38:41.396Z,63.60
2022-10-19T08:41:17.091Z,63.50
2022-10-19T08:43:56.197Z,63.50
2022-10-19T08:46:26.095Z,62.90
2022-10-19T08:48:55.313Z,62.20
2022-10-19T08:51:23.458Z,62.20
2022-10-19T08:53:53.567Z,62.50
2022-10-19T08:56:49.405Z,62.80
2022-10-19T08:59:15.880Z,62.90
2022-10-19T09:01:46.988Z,63.00
2022-10-19T09:04:20.940Z,62.70
2022-10-19T09:06:52.690Z,62.60
2022-10-19T09:09:21.865Z,62.80
2022-10-19T09:11:51.053Z,62.60
2022-10-19T09:14:22.264Z,62.30
2022-10-19T09:16:50.181Z,62.20
2022-10-19T09:19:25.548Z,61.90
2022-10-19T09:21:56.588Z,61.90
2022-10-19T09:24:33.115Z,62.00
2022-10-19T09:27:01.842Z,61.80
2022-10-19T09:29:34.184Z,61.60
2022-10-19T09:32:02.684Z,61.80
2022-10-19T09:34:34.281Z,62.20
2022-10-19T09:37:02.334Z,61.90
2022-10-19T09:39:31.113Z,61.60
2022-10-19T09:42:03.366Z,61.30
2022-10-19T09:44:31.586Z,61.60
2022-10-19T09:47:03.713Z,61.90
2022-10-19T09:49:41.825Z,61.90
2022-10-19T09:52:24.307Z,61.60
2022-10-19T09:55:03.167Z,61.40
2022-10-19T09:57:32.268Z,60.90
2022-10-19T10:00:00.486Z,60.80
2022-10-19T10:02:32.996Z,60.30
2022-10-19T10:05:06.683Z,60.10
2022-10-19T10:07:36.657Z,60.00
2022-10-19T10:13:28.238Z,60.20
2022-10-19T10:15:57.869Z,60.40
2022-10-19T10:18:26.465Z,60.10
2022-10-19T10:21:00.605Z,59.80
2022-10-19T10:23:31.144Z,59.60
2022-10-19T10:26:00.088Z,59.30
2022-10-19T10:28:29.344Z,59.20
2022-10-19T10:31:00.529Z,59.10
2022-10-19T10:33:44.295Z,58.80
2022-10-19T10:36:24.450Z,58.50
2022-10-19T10:38:54.204Z,57.90
2022-10-19T10:41:24.080Z,58.40
2022-10-19T10:43:53.562Z,57.90
2022-10-19T10:46:24.464Z,57.70
2022-10-19T10:48:57.970Z,57.90
2022-10-19T10:51:31.662Z,57.00
2022-10-19T10:54:08.073Z,57.30
2022-10-19T10:56:41.673Z,57.30
2022-10-19T10:59:14.119Z,57.20
2022-10-19T11:01:43.111Z,56.20
2022-10-19T11:04:13.054Z,56.20
2022-10-19T11:06:44.941Z,56.50
2022-10-19T11:09:17.715Z,56.40
2022-10-19T11:11:47.123Z,56.50
2022-10-19T11:14:31.103Z,55.80
2022-10-19T11:17:04.860Z,55.00
2022-10-19T11:19:35.396Z,55.10
2022-10-19T11:22:10.326Z,55.10
2022-10-19T11:24:46.392Z,53.90
2022-10-19T11:27:22.730Z,53.80
2022-10-19T11:29:56.991Z,53.60
2022-10-19T11:32:28.666Z,53.90
2022-10-19T11:35:05.182Z,54.10
2022-10-19T11:37:45.751Z,53.90
2022-10-19T11:40:23.463Z,53.90
2022-10-19T11:42:56.093Z,53.70
2022-10-19T11:45:29.981Z,53.20
2022-10-19T11:48:09.471Z,53.10
2022-10-19T11:50:44.112Z,53.10
2022-10-19T11:53:24.025Z,53.10
2022-10-19T11:55:58.182Z,53.10
2022-10-19T11:58:36.008Z,53.30
2022-10-19T12:01:09.273Z,52.80
2022-10-19T12:03:54.181Z,52.10
2022-10-19T12:06:28.778Z,52.20
2022-10-19T12:09:07.297Z,52.40
2022-10-19T12:11:42.490Z,52.40
2022-10-19T12:14:14.465Z,51.20
2022-10-19T12:16:44.628Z,51.00
2022-10-19T12:19:16.431Z,50.70
2022-10-19T12:21:45.875Z,50.70
2022-10-19T12:24:16.968Z,50.60
2022-10-19T12:26:48.360Z,50.60
2022-10-19T12:29:17.318Z,50.40
2022-10-19T12:31:45.933Z,50.20
2022-10-19T12:34:29.754Z,50.10
2022-10-19T12:37:02.026Z,49.80
2022-10-19T12:39:38.295Z,49.90
2022-10-19T12:42:11.895Z,49.80
2022-10-19T12:44:56.257Z,49.70
2022-10-19T12:47:27.102Z,49.60
2022-10-19T12:49:56.164Z,49.10
2022-10-19T12:52:40.029Z,49.00
2022-10-19T12:55:30.521Z,48.80
2022-10-19T12:58:00.345Z,49.00
2022-10-19T13:00:32.354Z,49.20
2022-10-19T13:03:02.032Z,49.10
2022-10-19T13:05:30.497Z,48.50
2022-10-19T13:08:14.539Z,48.40
2022-10-19T13:11:03.553Z,48.60
2022-10-19T13:13:46.261Z,48.70
2022-10-19T13:16:28.973Z,49.00
2022-10-19T13:19:14.764Z,48.70
2022-10-19T13:21:55.306Z,48.60
2022-10-19T13:24:33.924Z,48.50
2022-10-19T13:27:21.359Z,48.70
2022-10-19T13:29:50.982Z,48.70
2022-10-19T13:32:32.784Z,49.10
2022-10-19T13:35:15.828Z,49.30
2022-10-19T13:37:44.238Z,49.30
2022-10-19T13:40:23.754Z,49.00
2022-10-19T13:42:58.803Z,48.90
2022-10-19T13:45:28.306Z,48.80
2022-10-19T13:47:58.431Z,48.80
2022-10-19T13:50:31.490Z,49.00
2022-10-19T13:53:05.015Z,48.90
2022-10-19T13:55:50.538Z,48.80
2022-10-19T13:58:27.069Z,49.50
2022-10-19T14:01:04.732Z,48.90
2022-10-19T14:03:41.825Z,48.70
2022-10-19T14:06:14.572Z,48.30
2022-10-19T14:09:01.307Z,48.50
2022-10-19T14:11:32.149Z,48.80
2022-10-19T14:14:17.300Z,49.00
2022-10-19T14:16:51.679Z,49.20
2022-10-19T14:19:26.736Z,49.30
2022-10-19T14:22:00.714Z,49.20
2022-10-19T14:24:29.979Z,48.90
2022-10-19T14:26:58.684Z,49.30
2022-10-19T14:29:29.117Z,49.70
2022-10-19T14:31:59.773Z,49.90
2022-10-19T14:34:27.883Z,49.90
2022-10-19T14:36:56.152Z,50.10
2022-10-19T14:39:30.028Z,50.30
2022-10-19T14:42:00.440Z,50.30
2022-10-19T14:44:39.783Z,50.10
2022-10-19T14:47:20.845Z,50.40
2022-10-19T14:49:49.051Z,50.50
2022-10-19T14:52:20.359Z,50.60
2022-10-19T14:54:49.805Z,50.90
2022-10-19T14:57:20.068Z,51.20
2022-10-19T14:59:48.944Z,51.40
2022-10-19T15:02:19.071Z,51.20
2022-10-19T15:04:48.791Z,51.30
2022-10-19T15:07:18.958Z,51.20
2022-10-19T15:09:51.065Z,51.00
2022-10-19T15:12:20.479Z,51.20
2022-10-19T15:14:49.032Z,51.30
2022-10-19T15:17:27.210Z,51.30
2022-10-19T15:19:56.820Z,51.30
2022-10-19T15:22:30.537Z,51.50
2022-10-19T15:25:00.210Z,51.60
2022-10-19T15:27:32.552Z,51.70
2022-10-19T15:30:01.197Z,51.70
2022-10-19T15:32:32.581Z,51.70
2022-10-19T15:35:11.934Z,51.80
2022-10-19T15:37:41.774Z,52.10
2022-10-19T15:40:11.104Z,52.10
2022-10-19T15:42:42.016Z,52.10
2022-10-19T15:45:31.320Z,52.00
2022-10-19T15:48:26.260Z,52.30
2022-10-19T15:50:56.401Z,52.40
2022-10-19T15:53:24.269Z,52.50
2022-10-19T15:55:52.274Z,52.70
2022-10-19T15:58:21.341Z,52.80
2022-10-19T16:00:49.260Z,52.80
2022-10-19T16:03:17.383Z,52.90
2022-10-19T16:05:45.783Z,52.90
2022-10-19T16:08:15.279Z,52.90
2022-10-19T16:10:43.234Z,52.90
2022-10-19T16:13:11.070Z,52.90
2022-10-19T16:15:53.414Z,53.00
2022-10-19T16:18:29.497Z,53.10
2022-10-19T16:20:57.395Z,53.10
2022-10-19T16:23:39.398Z,53.10
2022-10-19T16:26:12.257Z,53.10
2022-10-19T16:28:40.221Z,53.30
2022-10-19T16:31:09.723Z,53.20
2022-10-19T16:33:45.112Z,53.20
2022-10-19T16:36:13.102Z,53.10
2022-10-19T16:38:44.624Z,53.10
2022-10-19T16:41:13.055Z,53.10
2022-10-19T16:43:49.642Z,53.20
2022-10-19T16:46:22.000Z,53.20
2022-10-19T16:48:49.995Z,53.40
2022-10-19T16:51:23.887Z,53.50
2022-10-19T16:53:54.344Z,53.60
2022-10-19T16:56:26.620Z,53.60
2022-10-19T16:58:55.735Z,53.70
2022-10-19T17:01:23.845Z,53.90
2022-10-19T17:03:51.946Z,54.00
2022-10-19T17:06:22.021Z,54.30
2022-10-19T17:09:23.702Z,54.50
2022-10-19T17:11:40.120Z,54.70
2022-10-19T17:14:09.392Z,54.70
2022-10-19T17:16:38.500Z,54.80
2022-10-19T17:19:07.309Z,54.90
2022-10-19T17:21:37.934Z,54.90
2022-10-19T17:24:06.594Z,54.90
2022-10-19T17:26:34.999Z,55.00
2022-10-19T17:29:04.264Z,55.10
2022-10-19T17:31:32.307Z,55.10
2022-10-19T17:34:00.656Z,55.30
2022-10-19T17:36:29.238Z,55.50
2022-10-19T17:38:58.365Z,55.70
2022-10-19T17:41:26.585Z,55.70
2022-10-19T17:43:54.545Z,55.90
2022-10-19T17:46:25.256Z,56.00
2022-10-19T17:48:53.108Z,56.20
2022-10-19T17:51:23.652Z,56.30
2022-10-19T17:53:51.660Z,56.40
2022-10-19T17:56:20.768Z,56.50
2022-10-19T17:58:48.605Z,56.40
2022-10-19T18:01:16.871Z,56.40
2022-10-19T18:03:46.730Z,56.30
2022-10-19T18:06:18.644Z,56.30
2022-10-19T18:08:47.092Z,56.50
2022-10-19T18:11:16.382Z,56.50
2022-10-19T18:13:44.450Z,56.60
2022-10-19T18:16:13.371Z,56.70
2022-10-19T18:18:42.585Z,56.60
2022-10-19T18:21:12.692Z,56.40
2022-10-19T18:23:41.043Z,56.30
2022-10-19T18:26:10.292Z,56.40
2022-10-19T18:28:38.316Z,56.30
2022-10-19T18:31:07.201Z,56.20
2022-10-19T18:33:35.500Z,56.20
2022-10-19T18:36:05.712Z,56.20
2022-10-19T18:38:34.925Z,56.20
2022-10-19T18:41:05.073Z,56.30
2022-10-19T18:43:33.105Z,56.30
2022-10-19T18:46:01.505Z,56.20
2022-10-19T18:48:30.370Z,56.10
2022-10-19T18:50:58.210Z,56.00
2022-10-19T18:53:26.618Z,56.10
2022-10-19T18:55:59.246Z,56.00
2022-10-19T18:58:27.227Z,56.30
2022-10-19T19:01:03.313Z,56.30
2022-10-19T19:03:31.647Z,56.30
2022-10-19T19:06:00.095Z,56.30
2022-10-19T19:08:28.523Z,56.40
2022-10-19T19:10:56.745Z,56.60
2022-10-19T19:13:26.957Z,56.50
2022-10-19T19:15:58.592Z,56.40
2022-10-19T19:18:26.459Z,56.50
2022-10-19T19:20:54.544Z,56.30
2022-10-19T19:23:22.394Z,56.20
2022-10-19T19:25:50.475Z,56.20
2022-10-19T19:28:18.432Z,56.10
2022-10-19T19:30:47.832Z,56.20
2022-10-19T19:33:15.671Z,56.20
2022-10-19T19:35:44.050Z,56.10
2022-10-19T19:38:12.144Z,56.20
2022-10-19T19:40:40.574Z,57.50
2022-10-19T19:43:08.535Z,56.80
2022-10-19T19:45:36.349Z,56.90
2022-10-19T19:48:06.442Z,56.80
2022-10-19T19:50:34.939Z,56.60
2022-10-19T19:53:03.852Z,56.70
2022-10-19T19:55:38.134Z,56.90
2022-10-19T19:58:07.100Z,57.10
2022-10-19T20:00:35.037Z,57.30
2022-10-19T20:03:03.031Z,57.40
2022-10-19T20:05:32.832Z,57.50
2022-10-19T20:08:00.718Z,57.50
2022-10-19T20:10:28.758Z,57.30
2022-10-19T20:12:56.655Z,57.20
2022-10-19T20:15:24.623Z,57.20
2022-10-19T20:17:52.583Z,57.30
2022-10-19T20:20:21.267Z,57.30
2022-10-19T20:22:50.538Z,57.40
2022-10-19T20:25:18.540Z,57.40
2022-10-19T20:27:46.743Z,57.40
2022-10-19T20:30:14.513Z,57.50
2022-10-19T20:32:42.319Z,57.40
2022-10-19T20:35:10.470Z,57.40
2022-10-19T20:37:38.242Z,57.50
2022-10-19T20:40:08.994Z,57.50
2022-10-19T20:42:37.184Z,57.60
2022-10-19T20:45:05.609Z,57.50
2022-10-19T20:47:33.993Z,57.40
2022-10-19T20:52:29.692Z,57.40
2022-10-19T20:54:57.511Z,57.50
2022-10-19T20:57:26.635Z,57.30
2022-10-19T20:59:54.428Z,57.20
2022-10-19T21:02:22.241Z,57.30
2022-10-19T21:04:50.452Z,57.40
2022-10-19T21:07:18.186Z,57.30
2022-10-19T21:09:46.159Z,57.30
2022-10-19T21:12:14.131Z,57.40
2022-10-19T21:14:44.447Z,57.30
2022-10-19T21:17:12.215Z,57.50
2022-10-19T21:19:40.053Z,57.50
2022-10-19T21:22:08.536Z,57.60
2022-10-19T21:24:37.092Z,57.50
2022-10-19T21:27:05.956Z,57.40
2022-10-19T21:29:34.264Z,57.30
2022-10-19T21:32:03.730Z,57.20
2022-10-19T21:34:37.419Z,57.10
2022-10-19T21:37:05.286Z,57.00
2022-10-19T21:39:33.092Z,56.90
2022-10-19T21:42:00.873Z,56.80
2022-10-19T21:44:28.715Z,56.70
2022-10-19T21:46:59.424Z,56.70
2022-10-19T21:49:31.854Z,56.70
2022-10-19T21:51:59.680Z,56.60
2022-10-19T21:54:29.079Z,56.80
2022-10-19T21:56:58.499Z,57.00
2022-10-19T21:59:26.340Z,57.20
2022-10-19T22:01:55.233Z,57.50
2022-10-19T22:04:23.310Z,57.80
2022-10-19T22:06:52.448Z,58.00
2022-10-19T22:09:21.881Z,58.10
2022-10-19T22:11:52.221Z,58.10
2022-10-19T22:14:20.054Z,58.10
2022-10-19T22:16:47.749Z,58.00
2022-10-19T22:19:15.570Z,58.10
2022-10-19T22:21:43.305Z,58.30
2022-10-19T22:24:14.132Z,58.30
2022-10-19T22:26:42.942Z,58.40
2022-10-19T22:29:10.962Z,58.40
2022-10-19T22:31:39.003Z,58.30
2022-10-19T22:34:08.104Z,58.10
2022-10-19T22:36:36.177Z,58.00
2022-10-19T22:39:04.056Z,57.90
2022-10-19T22:41:33.152Z,57.90
2022-10-19T22:44:01.105Z,57.80
2022-10-19T22:46:28.911Z,57.80
2022-10-19T22:48:56.702Z,57.70
2022-10-19T22:51:24.578Z,57.70
2022-10-19T22:53:52.367Z,57.80
2022-10-19T22:56:20.121Z,57.90
2022-10-19T22:58:49.293Z,57.90
2022-10-19T23:01:17.219Z,58.00
2022-10-19T23:03:45.043Z,58.40
2022-10-19T23:06:13.355Z,58.30
2022-10-19T23:08:41.273Z,58.30
2022-10-19T23:11:09.067Z,58.40
2022-10-19T23:13:36.820Z,58.60
2022-10-19T23:16:06.292Z,58.80
2022-10-19T23:18:34.835Z,58.80
2022-10-19T23:21:03.583Z,59.00
2022-10-19T23:23:31.930Z,59.00
2022-10-19T23:26:00.690Z,58.80
2022-10-19T23:28:28.562Z,58.80
2022-10-19T23:30:57.215Z,58.80
2022-10-19T23:33:26.906Z,58.90
2022-10-19T23:35:54.690Z,58.80
2022-10-19T23:38:22.484Z,58.70
2022-10-19T23:40:50.255Z,58.80
2022-10-19T23:43:18.030Z,59.00
2022-10-19T23:45:46.197Z,59.10
2022-10-19T23:48:13.960Z,59.00
2022-10-19T23:50:44.663Z,59.10
2022-10-19T23:53:12.628Z,59.00
2022-10-19T23:55:43.279Z,58.90
2022-10-19T23:58:11.289Z,59.10
